Ship Status Report: callsign LEFO3

sailwx.info

Track history (hours):
 
Tides and Currents Weather Stations Pressure Air Temp Water Temp Dewpoint Dewpoint Depression Visibility Wind Speed Wind Dir Waves Ship Positions

Callsign LEFO3 (name unknown)

Last reported at 2017-Sep-24 04:21 UTC. Time now 2017-Dec-15 04:43 UTC.
Position N 32°45' W 009°29'.
Warning: this ship's position is months out of date.

Date/timePositionNaut miles runAvg speedWind from/ knotsBaromVisibWave heightAir tempDewpointWater temp
2017-Sep-24 04:21N 32°45' W 009°29'229 4.4
2017-Sep-22 00:42N 36°32' W 008°52'315.3
2017-Sep-22 00:30N 36°32' W 008°56'7413.2
2017-Sep-21 18:51N 37°41' W 009°30'716.0
2017-Sep-21 18:26N 37°47' W 009°29'716.3
2017-Sep-21 18:00N 37°54' W 009°29'815.9
2017-Sep-21 17:30N 38°02' W 009°27'816.0
2017-Sep-21 17:00N 38°10' W 009°26'815.9
2017-Sep-21 16:30N 38°18' W 009°25'816.5
2017-Sep-21 16:00N 38°26' W 009°24'816.0
2017-Sep-21 15:30N 38°34' W 009°23'714.1
2017-Sep-21 15:00N 38°40' W 009°18'5 9.7
2017-Sep-21 14:30N 38°41' W 009°12'4 7.8
2017-Sep-21 13:58N 38°43' W 009°07'0 0.0
2017-Sep-21 12:20N 38°43' W 009°07'0 0.0
2017-Sep-21 11:52N 38°43' W 009°07'0 0.0
2017-Sep-21 11:12N 38°43' W 009°07'0 0.0
2017-Sep-21 10:54N 38°43' W 009°07'0 0.0
2017-Sep-21 10:29N 38°43' W 009°07'0 0.0
2017-Sep-21 09:50N 38°43' W 009°07'0 0.0
2017-Sep-21 09:26N 38°43' W 009°07'0 0.0
2017-Sep-21 08:59N 38°43' W 009°07'0 0.0
2017-Sep-21 08:29N 38°43' W 009°07'0 0.0
2017-Sep-21 07:58N 38°43' W 009°07'0 0.0
2017-Sep-21 07:18N 38°43' W 009°07'0 0.0
2017-Sep-21 07:00N 38°43' W 009°07'0 0.9
2017-Sep-21 06:31N 38°42' W 009°07'610.9
2017-Sep-21 06:00N 38°41' W 009°14'4 8.9
2017-Sep-21 05:30N 38°39' W 009°20'612.8
2017-Sep-21 05:00N 38°36' W 009°27'815.0
2017-Sep-21 04:30N 38°37' W 009°36'612.4
2017-Sep-21 04:00N 38°41' W 009°42'713.6
2017-Sep-21 03:30N 38°48' W 009°43'714.3
2017-Sep-21 03:00N 38°55' W 009°44'714.0
2017-Sep-21 02:30N 39°02' W 009°44'713.4
2017-Sep-21 02:00N 39°08' W 009°45'713.6
2017-Sep-21 01:30N 39°15' W 009°46'713.4
2017-Sep-21 01:00N 39°22' W 009°44'1614.1
2017-Sep-20 23:52N 39°37' W 009°39'  
2017-Sep-18 05:58N 48°04' W 005°42'3014.6
2017-Sep-18 03:54N 48°32' W 005°23'714.3
2017-Sep-18 03:25N 48°37' W 005°17'613.1
2017-Sep-18 03:00N 48°40' W 005°10'713.4
2017-Sep-18 02:30N 48°43' W 005°01'713.5
2017-Sep-18 02:00N 48°45' W 004°51'128 6.0
2017-Sep-17 04:43N 49°47' W 001°59'211.5
2017-Sep-17 04:30N 49°49' W 001°56'611.4
2017-Sep-17 04:00N 49°51' W 001°48'611.8
2017-Sep-17 03:30N 49°54' W 001°40'612.1
2017-Sep-17 03:00N 49°57' W 001°32'612.5
2017-Sep-17 02:30N 50°00' W 001°24'4912.8
2017-Sep-16 22:39N 50°24' W 000°16'212.7
2017-Sep-16 22:30N 50°25' W 000°14'612.8
2017-Sep-16 22:01N 50°28' W 000°04'815.4
2017-Sep-16 21:31N 50°31' E 000°07'815.8
2017-Sep-16 21:01N 50°34' E 000°18'815.5
2017-Sep-16 20:30N 50°37' E 000°29'715.1
2017-Sep-16 20:01N 50°40' E 000°40'714.8
2017-Sep-16 19:31N 50°44' E 000°49'714.7
2017-Sep-16 19:01N 50°49' E 000°58'1114.8
2017-Sep-16 18:15N 50°56' E 001°12'415.1
2017-Sep-16 18:00N 50°59' E 001°16'815.6
2017-Sep-16 17:31N 51°04' E 001°26'816.8
2017-Sep-16 17:01N 51°09' E 001°36'917.0
2017-Sep-16 16:31N 51°15' E 001°47'817.0
2017-Sep-16 16:01N 51°22' E 001°54'816.4
2017-Sep-16 15:30N 51°28' E 002°01'815.9
2017-Sep-16 15:00N 51°35' E 002°10'9813.6
2017-Sep-16 07:48N 52°30' E 004°21'415.1
2017-Sep-16 07:31N 52°29' E 004°28'510.6
2017-Sep-16 07:00N 52°28' E 004°36'2 3.2
2017-Sep-16 06:30N 52°28' E 004°39'4 8.2
2017-Sep-16 06:00N 52°26' E 004°45'4 8.2
2017-Sep-16 05:30N 52°25' E 004°51'3 6.2
2017-Sep-16 05:00N 52°23' E 004°55'0 0.2
2017-Sep-16 04:30N 52°23' E 004°55'0 0.0
2017-Sep-16 03:58N 52°23' E 004°55'0 0.0
2017-Sep-16 03:19N 52°23' E 004°55'0 0.0
2017-Sep-16 02:58N 52°23' E 004°55'0 0.0
2017-Sep-16 02:25N 52°23' E 004°55'0 0.0
2017-Sep-16 01:58N 52°23' E 004°55'0 0.0
2017-Sep-16 01:28N 52°23' E 004°55'0 0.0
2017-Sep-16 00:58N 52°23' E 004°55'0 0.0
2017-Sep-16 00:28N 52°23' E 004°55'0 0.0
2017-Sep-15 23:55N 52°23' E 004°55'0 0.0
2017-Sep-15 23:25N 52°23' E 004°55'0 0.0
2017-Sep-15 22:58N 52°23' E 004°55'0 0.0
2017-Sep-15 22:28N 52°23' E 004°55'0 0.0
2017-Sep-15 21:58N 52°23' E 004°55'0 0.0
2017-Sep-15 21:28N 52°23' E 004°55'0 0.0
2017-Sep-15 20:58N 52°23' E 004°55'0 0.0
2017-Sep-15 20:28N 52°23' E 004°55'0 0.0
2017-Sep-15 19:58N 52°23' E 004°55'0 0.0
2017-Sep-15 19:28N 52°23' E 004°55'0 0.0
2017-Sep-15 18:52N 52°23' E 004°55'0 0.0
2017-Sep-15 18:28N 52°23' E 004°55'0 0.0
2017-Sep-15 17:58N 52°23' E 004°55'0 0.0
2017-Sep-15 17:25N 52°23' E 004°55'0 0.0
2017-Sep-15 16:58N 52°23' E 004°55'0 0.0
2017-Sep-15 16:22N 52°23' E 004°55'0 0.0
2017-Sep-15 15:58N 52°23' E 004°55'0 0.0
2017-Sep-15 15:28N 52°23' E 004°55'0 0.0
2017-Sep-15 14:58N 52°23' E 004°55'0 0.0
2017-Sep-15 14:25N 52°23' E 004°55'0 0.0
2017-Sep-15 13:58N 52°23' E 004°55'0 0.0
2017-Sep-15 13:28N 52°23' E 004°55'0 0.0
2017-Sep-15 12:55N 52°23' E 004°55'0 0.0
2017-Sep-15 12:25N 52°23' E 004°55'0 0.0
2017-Sep-15 11:55N 52°23' E 004°55'0 0.0
2017-Sep-15 11:19N 52°23' E 004°55'0 0.0
2017-Sep-15 10:55N 52°23' E 004°55'0 0.0
2017-Sep-15 10:28N 52°23' E 004°55'0 0.0
2017-Sep-15 09:58N 52°23' E 004°55'0 0.0
2017-Sep-15 09:29N 52°23' E 004°55'0 0.0
2017-Sep-15 09:00N 52°23' E 004°55'0 0.0
2017-Sep-15 08:30N 52°23' E 004°55'0 0.0
2017-Sep-15 08:00N 52°23' E 004°55'0 0.0
2017-Sep-15 07:30N 52°23' E 004°55'0 0.0
2017-Sep-15 07:00N 52°23' E 004°55'0 0.0
2017-Sep-15 06:30N 52°23' E 004°55'0 0.1
2017-Sep-15 06:01N 52°23' E 004°55'3 5.1
2017-Sep-15 05:31N 52°25' E 004°52'4 8.2
2017-Sep-15 05:01N 52°26' E 004°46'4 8.1
2017-Sep-15 04:30N 52°28' E 004°40'2 4.1
2017-Sep-15 04:00N 52°28' E 004°37'3 5.5
2017-Sep-15 03:30N 52°28' E 004°32'510.8
2017-Sep-15 03:00N 52°28' E 004°23'5 9.9
2017-Sep-15 02:30N 52°29' E 004°15'510.5
2017-Sep-15 02:01N 52°32' E 004°08'612.1
2017-Sep-15 01:29N 52°37' E 004°04'  
Track history (hours):
 
Tides and Currents Weather Stations Pressure Air Temp Water Temp Dewpoint Dewpoint Depression Visibility Wind Speed Wind Dir Waves Ship Positions

Callsign LEFO3 (name unknown)

Last reported at 2017-Sep-24 04:21 UTC. Time now 2017-Dec-15 04:43 UTC.
Position N 32°45' W 009°29'.
Warning: this ship's position is months out of date.

Date/timePositionNaut miles runAvg speedWind from/ knotsBaromVisibWave heightAir tempDewpointWater temp
2017-Sep-24 04:21N 32°45' W 009°29'229 4.4
2017-Sep-22 00:42N 36°32' W 008°52'315.3
2017-Sep-22 00:30N 36°32' W 008°56'7413.2
2017-Sep-21 18:51N 37°41' W 009°30'716.0
2017-Sep-21 18:26N 37°47' W 009°29'716.3
2017-Sep-21 18:00N 37°54' W 009°29'815.9
2017-Sep-21 17:30N 38°02' W 009°27'816.0
2017-Sep-21 17:00N 38°10' W 009°26'815.9
2017-Sep-21 16:30N 38°18' W 009°25'816.5
2017-Sep-21 16:00N 38°26' W 009°24'816.0
2017-Sep-21 15:30N 38°34' W 009°23'714.1
2017-Sep-21 15:00N 38°40' W 009°18'5 9.7
2017-Sep-21 14:30N 38°41' W 009°12'4 7.8
2017-Sep-21 13:58N 38°43' W 009°07'0 0.0
2017-Sep-21 12:20N 38°43' W 009°07'0 0.0
2017-Sep-21 11:52N 38°43' W 009°07'0 0.0
2017-Sep-21 11:12N 38°43' W 009°07'0 0.0
2017-Sep-21 10:54N 38°43' W 009°07'0 0.0
2017-Sep-21 10:29N 38°43' W 009°07'0 0.0
2017-Sep-21 09:50N 38°43' W 009°07'0 0.0
2017-Sep-21 09:26N 38°43' W 009°07'0 0.0
2017-Sep-21 08:59N 38°43' W 009°07'0 0.0
2017-Sep-21 08:29N 38°43' W 009°07'0 0.0
2017-Sep-21 07:58N 38°43' W 009°07'0 0.0
2017-Sep-21 07:18N 38°43' W 009°07'0 0.0
2017-Sep-21 07:00N 38°43' W 009°07'0 0.9
2017-Sep-21 06:31N 38°42' W 009°07'610.9
2017-Sep-21 06:00N 38°41' W 009°14'4 8.9
2017-Sep-21 05:30N 38°39' W 009°20'612.8
2017-Sep-21 05:00N 38°36' W 009°27'815.0
2017-Sep-21 04:30N 38°37' W 009°36'612.4
2017-Sep-21 04:00N 38°41' W 009°42'713.6
2017-Sep-21 03:30N 38°48' W 009°43'714.3
2017-Sep-21 03:00N 38°55' W 009°44'714.0
2017-Sep-21 02:30N 39°02' W 009°44'713.4
2017-Sep-21 02:00N 39°08' W 009°45'713.6
2017-Sep-21 01:30N 39°15' W 009°46'713.4
2017-Sep-21 01:00N 39°22' W 009°44'1614.1
2017-Sep-20 23:52N 39°37' W 009°39'  
2017-Sep-18 05:58N 48°04' W 005°42'3014.6
2017-Sep-18 03:54N 48°32' W 005°23'714.3
2017-Sep-18 03:25N 48°37' W 005°17'613.1
2017-Sep-18 03:00N 48°40' W 005°10'713.4
2017-Sep-18 02:30N 48°43' W 005°01'713.5
2017-Sep-18 02:00N 48°45' W 004°51'128 6.0
2017-Sep-17 04:43N 49°47' W 001°59'211.5
2017-Sep-17 04:30N 49°49' W 001°56'611.4
2017-Sep-17 04:00N 49°51' W 001°48'611.8
2017-Sep-17 03:30N 49°54' W 001°40'612.1
2017-Sep-17 03:00N 49°57' W 001°32'612.5
2017-Sep-17 02:30N 50°00' W 001°24'4912.8
2017-Sep-16 22:39N 50°24' W 000°16'212.7
2017-Sep-16 22:30N 50°25' W 000°14'612.8
2017-Sep-16 22:01N 50°28' W 000°04'815.4
2017-Sep-16 21:31N 50°31' E 000°07'815.8
2017-Sep-16 21:01N 50°34' E 000°18'815.5
2017-Sep-16 20:30N 50°37' E 000°29'715.1
2017-Sep-16 20:01N 50°40' E 000°40'714.8
2017-Sep-16 19:31N 50°44' E 000°49'714.7
2017-Sep-16 19:01N 50°49' E 000°58'1114.8
2017-Sep-16 18:15N 50°56' E 001°12'415.1
2017-Sep-16 18:00N 50°59' E 001°16'815.6
2017-Sep-16 17:31N 51°04' E 001°26'816.8
2017-Sep-16 17:01N 51°09' E 001°36'917.0
2017-Sep-16 16:31N 51°15' E 001°47'817.0
2017-Sep-16 16:01N 51°22' E 001°54'816.4
2017-Sep-16 15:30N 51°28' E 002°01'815.9
2017-Sep-16 15:00N 51°35' E 002°10'9813.6
2017-Sep-16 07:48N 52°30' E 004°21'415.1
2017-Sep-16 07:31N 52°29' E 004°28'510.6
2017-Sep-16 07:00N 52°28' E 004°36'2 3.2
2017-Sep-16 06:30N 52°28' E 004°39'4 8.2
2017-Sep-16 06:00N 52°26' E 004°45'4 8.2
2017-Sep-16 05:30N 52°25' E 004°51'3 6.2
2017-Sep-16 05:00N 52°23' E 004°55'0 0.2
2017-Sep-16 04:30N 52°23' E 004°55'0 0.0
2017-Sep-16 03:58N 52°23' E 004°55'0 0.0
2017-Sep-16 03:19N 52°23' E 004°55'0 0.0
2017-Sep-16 02:58N 52°23' E 004°55'0 0.0
2017-Sep-16 02:25N 52°23' E 004°55'0 0.0
2017-Sep-16 01:58N 52°23' E 004°55'0 0.0
2017-Sep-16 01:28N 52°23' E 004°55'0 0.0
2017-Sep-16 00:58N 52°23' E 004°55'0 0.0
2017-Sep-16 00:28N 52°23' E 004°55'0 0.0
2017-Sep-15 23:55N 52°23' E 004°55'0 0.0
2017-Sep-15 23:25N 52°23' E 004°55'0 0.0
2017-Sep-15 22:58N 52°23' E 004°55'0 0.0
2017-Sep-15 22:28N 52°23' E 004°55'0 0.0
2017-Sep-15 21:58N 52°23' E 004°55'0 0.0
2017-Sep-15 21:28N 52°23' E 004°55'0 0.0
2017-Sep-15 20:58N 52°23' E 004°55'0 0.0
2017-Sep-15 20:28N 52°23' E 004°55'0 0.0
2017-Sep-15 19:58N 52°23' E 004°55'0 0.0
2017-Sep-15 19:28N 52°23' E 004°55'0 0.0
2017-Sep-15 18:52N 52°23' E 004°55'0 0.0
2017-Sep-15 18:28N 52°23' E 004°55'0 0.0
2017-Sep-15 17:58N 52°23' E 004°55'0 0.0
2017-Sep-15 17:25N 52°23' E 004°55'0 0.0
2017-Sep-15 16:58N 52°23' E 004°55'0 0.0
2017-Sep-15 16:22N 52°23' E 004°55'0 0.0
2017-Sep-15 15:58N 52°23' E 004°55'0 0.0
2017-Sep-15 15:28N 52°23' E 004°55'0 0.0
2017-Sep-15 14:58N 52°23' E 004°55'0 0.0
2017-Sep-15 14:25N 52°23' E 004°55'0 0.0
2017-Sep-15 13:58N 52°23' E 004°55'0 0.0
2017-Sep-15 13:28N 52°23' E 004°55'0 0.0
2017-Sep-15 12:55N 52°23' E 004°55'0 0.0
2017-Sep-15 12:25N 52°23' E 004°55'0 0.0
2017-Sep-15 11:55N 52°23' E 004°55'0 0.0
2017-Sep-15 11:19N 52°23' E 004°55'0 0.0
2017-Sep-15 10:55N 52°23' E 004°55'0 0.0
2017-Sep-15 10:28N 52°23' E 004°55'0 0.0
2017-Sep-15 09:58N 52°23' E 004°55'0 0.0
2017-Sep-15 09:29N 52°23' E 004°55'0 0.0
2017-Sep-15 09:00N 52°23' E 004°55'0 0.0
2017-Sep-15 08:30N 52°23' E 004°55'0 0.0
2017-Sep-15 08:00N 52°23' E 004°55'0 0.0
2017-Sep-15 07:30N 52°23' E 004°55'0 0.0
2017-Sep-15 07:00N 52°23' E 004°55'0 0.0
2017-Sep-15 06:30N 52°23' E 004°55'0 0.1
2017-Sep-15 06:01N 52°23' E 004°55'3 5.1
2017-Sep-15 05:31N 52°25' E 004°52'4 8.2
2017-Sep-15 05:01N 52°26' E 004°46'4 8.1
2017-Sep-15 04:30N 52°28' E 004°40'2 4.1
2017-Sep-15 04:00N 52°28' E 004°37'3 5.5
2017-Sep-15 03:30N 52°28' E 004°32'510.8
2017-Sep-15 03:00N 52°28' E 004°23'5 9.9
2017-Sep-15 02:30N 52°29' E 004°15'510.5
2017-Sep-15 02:01N 52°32' E 004°08'612.1
2017-Sep-15 01:29N 52°37' E 004°04'  

Dump ship's entire track history